sensor_id;sensor_type;location;lat;lon;timestamp;temperature;humidity
11826;DHT22;5970;48.094;11.496;2022-09-27T00:00:39;14.30;99.90
11826;DHT22;5970;48.094;11.496;2022-09-27T00:03:09;11.90;99.90
11826;DHT22;5970;48.094;11.496;2022-09-27T00:05:35;12.50;99.90
11826;DHT22;5970;48.094;11.496;2022-09-27T00:08:02;12.00;99.90
11826;DHT22;5970;48.094;11.496;2022-09-27T00:10:30;12.30;99.90
11826;DHT22;5970;48.094;11.496;2022-09-27T00:12:57;13.80;99.90
11826;DHT22;5970;48.094;11.496;2022-09-27T00:15:23;11.90;99.90
11826;DHT22;5970;48.094;11.496;2022-09-27T00:17:50;11.90;99.90
11826;DHT22;5970;48.094;11.496;2022-09-27T00:20:18;11.90;99.90
11826;DHT22;5970;48.094;11.496;2022-09-27T00:22:46;11.90;99.90
11826;DHT22;5970;48.094;11.496;2022-09-27T00:25:14;11.90;99.90
11826;DHT22;5970;48.094;11.496;2022-09-27T00:27:40;11.90;99.90
11826;DHT22;5970;48.094;11.496;2022-09-27T00:30:07;11.90;99.90
11826;DHT22;5970;48.094;11.496;2022-09-27T00:32:34;11.90;99.90
11826;DHT22;5970;48.094;11.496;2022-09-27T00:35:01;11.80;99.90
11826;DHT22;5970;48.094;11.496;2022-09-27T00:37:27;11.80;99.90
11826;DHT22;5970;48.094;11.496;2022-09-27T00:39:54;11.80;99.90
11826;DHT22;5970;48.094;11.496;2022-09-27T00:42:21;12.10;99.90
11826;DHT22;5970;48.094;11.496;2022-09-27T00:45:01;11.70;99.90
11826;DHT22;5970;48.094;11.496;2022-09-27T00:47:35;11.70;99.90
11826;DHT22;5970;48.094;11.496;2022-09-27T00:50:09;11.70;99.90
11826;DHT22;5970;48.094;11.496;2022-09-27T00:53:22;11.60;99.90
11826;DHT22;5970;48.094;11.496;2022-09-27T00:55:33;11.50;99.90
11826;DHT22;5970;48.094;11.496;2022-09-27T00:58:02;11.50;99.90
11826;DHT22;5970;48.094;11.496;2022-09-27T01:00:30;11.50;99.90
11826;DHT22;5970;48.094;11.496;2022-09-27T01:02:57;11.50;99.90
11826;DHT22;5970;48.094;11.496;2022-09-27T01:05:24;12.80;99.90
11826;DHT22;5970;48.094;11.496;2022-09-27T01:07:52;11.40;99.90
11826;DHT22;5970;48.094;11.496;2022-09-27T01:10:22;11.40;99.90
11826;DHT22;5970;48.094;11.496;2022-09-27T01:12:56;11.40;99.90
11826;DHT22;5970;48.094;11.496;2022-09-27T01:15:41;11.40;99.90
11826;DHT22;5970;48.094;11.496;2022-09-27T01:23:32;11.30;99.90
11826;DHT22;5970;48.094;11.496;2022-09-27T01:28:46;11.20;99.90
11826;DHT22;5970;48.094;11.496;2022-09-27T01:34:05;11.30;99.90
11826;DHT22;5970;48.094;11.496;2022-09-27T01:39:16;11.30;99.90
11826;DHT22;5970;48.094;11.496;2022-09-27T01:41:50;11.30;99.90
11826;DHT22;5970;48.094;11.496;2022-09-27T01:46:47;11.30;99.90
11826;DHT22;5970;48.094;11.496;2022-09-27T01:49:17;11.30;99.90
11826;DHT22;5970;48.094;11.496;2022-09-27T01:51:44;11.30;99.90
11826;DHT22;5970;48.094;11.496;2022-09-27T01:54:15;11.30;99.90
11826;DHT22;5970;48.094;11.496;2022-09-27T01:56:45;11.20;99.90
11826;DHT22;5970;48.094;11.496;2022-09-27T02:02:15;11.10;99.90
11826;DHT22;5970;48.094;11.496;2022-09-27T02:04:43;10.90;99.90
11826;DHT22;5970;48.094;11.496;2022-09-27T02:07:11;12.60;99.90
11826;DHT22;5970;48.094;11.496;2022-09-27T02:09:49;11.00;99.90
11826;DHT22;5970;48.094;11.496;2022-09-27T02:12:20;10.90;99.90
11826;DHT22;5970;48.094;11.496;2022-09-27T02:14:55;11.00;99.90
11826;DHT22;5970;48.094;11.496;2022-09-27T02:20:07;11.00;99.90
11826;DHT22;5970;48.094;11.496;2022-09-27T02:22:38;10.90;99.90
11826;DHT22;5970;48.094;11.496;2022-09-27T02:30:21;10.90;99.90
11826;DHT22;5970;48.094;11.496;2022-09-27T02:32:48;12.50;99.90
11826;DHT22;5970;48.094;11.496;2022-09-27T02:37:42;11.00;99.90
11826;DHT22;5970;48.094;11.496;2022-09-27T02:40:08;10.90;99.90
11826;DHT22;5970;48.094;11.496;2022-09-27T02:42:35;10.90;99.90
11826;DHT22;5970;48.094;11.496;2022-09-27T02:45:03;11.00;99.90
11826;DHT22;5970;48.094;11.496;2022-09-27T02:50:10;11.00;99.90
11826;DHT22;5970;48.094;11.496;2022-09-27T02:52:48;10.90;99.90
11826;DHT22;5970;48.094;11.496;2022-09-27T03:03:36;10.90;99.90
11826;DHT22;5970;48.094;11.496;2022-09-27T03:06:11;11.00;99.90
11826;DHT22;5970;48.094;11.496;2022-09-27T03:08:39;11.00;99.90
11826;DHT22;5970;48.094;11.496;2022-09-27T03:11:06;11.10;99.90
11826;DHT22;5970;48.094;11.496;2022-09-27T03:13:33;11.10;99.90
11826;DHT22;5970;48.094;11.496;2022-09-27T03:16:21;11.00;99.90
11826;DHT22;5970;48.094;11.496;2022-09-27T03:18:48;11.00;99.90
11826;DHT22;5970;48.094;11.496;2022-09-27T03:21:15;11.10;99.90
11826;DHT22;5970;48.094;11.496;2022-09-27T03:23:41;11.00;99.90
11826;DHT22;5970;48.094;11.496;2022-09-27T03:26:08;11.00;99.90
11826;DHT22;5970;48.094;11.496;2022-09-27T03:28:38;11.00;99.90
11826;DHT22;5970;48.094;11.496;2022-09-27T03:31:05;11.00;99.90
11826;DHT22;5970;48.094;11.496;2022-09-27T03:33:31;11.00;99.90
11826;DHT22;5970;48.094;11.496;2022-09-27T03:35:58;10.90;99.90
11826;DHT22;5970;48.094;11.496;2022-09-27T03:38:25;11.00;99.90
11826;DHT22;5970;48.094;11.496;2022-09-27T03:40:52;11.00;99.90
11826;DHT22;5970;48.094;11.496;2022-09-27T03:43:18;11.00;99.90
11826;DHT22;5970;48.094;11.496;2022-09-27T03:45:45;10.90;99.90
11826;DHT22;5970;48.094;11.496;2022-09-27T03:48:12;11.00;99.90
11826;DHT22;5970;48.094;11.496;2022-09-27T03:50:39;10.90;99.90
11826;DHT22;5970;48.094;11.496;2022-09-27T03:53:06;10.90;99.90
11826;DHT22;5970;48.094;11.496;2022-09-27T03:55:32;11.00;99.90
11826;DHT22;5970;48.094;11.496;2022-09-27T03:58:00;11.00;99.90
11826;DHT22;5970;48.094;11.496;2022-09-27T04:00:27;11.00;99.90
11826;DHT22;5970;48.094;11.496;2022-09-27T04:02:54;11.00;99.90
11826;DHT22;5970;48.094;11.496;2022-09-27T04:05:20;11.00;99.90
11826;DHT22;5970;48.094;11.496;2022-09-27T04:07:48;11.00;99.90
11826;DHT22;5970;48.094;11.496;2022-09-27T04:10:15;12.10;99.90
11826;DHT22;5970;48.094;11.496;2022-09-27T04:12:42;10.90;99.90
11826;DHT22;5970;48.094;11.496;2022-09-27T04:15:09;10.80;99.90
11826;DHT22;5970;48.094;11.496;2022-09-27T04:17:36;10.80;99.90
11826;DHT22;5970;48.094;11.496;2022-09-27T04:20:03;10.70;99.90
11826;DHT22;5970;48.094;11.496;2022-09-27T04:22:30;10.60;99.90
11826;DHT22;5970;48.094;11.496;2022-09-27T04:24:57;9.30;99.90
11826;DHT22;5970;48.094;11.496;2022-09-27T04:27:23;10.50;99.90
11826;DHT22;5970;48.094;11.496;2022-09-27T04:29:50;10.50;99.90
11826;DHT22;5970;48.094;11.496;2022-09-27T04:32:16;10.40;99.90
11826;DHT22;5970;48.094;11.496;2022-09-27T04:34:43;10.30;99.90
11826;DHT22;5970;48.094;11.496;2022-09-27T04:37:28;10.30;99.90
11826;DHT22;5970;48.094;11.496;2022-09-27T04:39:55;10.20;99.90
11826;DHT22;5970;48.094;11.496;2022-09-27T04:42:21;11.00;99.90
11826;DHT22;5970;48.094;11.496;2022-09-27T04:44:48;10.10;99.90
11826;DHT22;5970;48.094;11.496;2022-09-27T04:47:15;10.20;99.90
11826;DHT22;5970;48.094;11.496;2022-09-27T04:49:42;10.10;99.90
11826;DHT22;5970;48.094;11.496;2022-09-27T04:52:09;10.10;99.90
11826;DHT22;5970;48.094;11.496;2022-09-27T04:54:35;10.10;99.90
11826;DHT22;5970;48.094;11.496;2022-09-27T04:57:03;10.10;99.90
11826;DHT22;5970;48.094;11.496;2022-09-27T04:59:30;10.10;99.90
11826;DHT22;5970;48.094;11.496;2022-09-27T05:01:57;10.90;99.90
11826;DHT22;5970;48.094;11.496;2022-09-27T05:04:26;10.20;99.90
11826;DHT22;5970;48.094;11.496;2022-09-27T05:06:53;10.20;99.90
11826;DHT22;5970;48.094;11.496;2022-09-27T05:09:22;10.10;99.90
11826;DHT22;5970;48.094;11.496;2022-09-27T05:11:49;10.10;99.90
11826;DHT22;5970;48.094;11.496;2022-09-27T05:14:16;10.10;99.90
11826;DHT22;5970;48.094;11.496;2022-09-27T05:16:42;10.20;99.90
11826;DHT22;5970;48.094;11.496;2022-09-27T05:19:10;10.20;99.90
11826;DHT22;5970;48.094;11.496;2022-09-27T05:21:36;10.20;99.90
11826;DHT22;5970;48.094;11.496;2022-09-27T05:24:03;10.20;99.90
11826;DHT22;5970;48.094;11.496;2022-09-27T05:26:29;10.30;99.90
11826;DHT22;5970;48.094;11.496;2022-09-27T05:28:56;10.30;99.90
11826;DHT22;5970;48.094;11.496;2022-09-27T05:31:23;10.30;99.90
11826;DHT22;5970;48.094;11.496;2022-09-27T05:33:50;11.50;99.90
11826;DHT22;5970;48.094;11.496;2022-09-27T05:36:17;10.40;99.90
11826;DHT22;5970;48.094;11.496;2022-09-27T05:38:44;10.30;99.90
11826;DHT22;5970;48.094;11.496;2022-09-27T05:41:11;10.40;99.90
11826;DHT22;5970;48.094;11.496;2022-09-27T05:43:38;10.30;99.90
11826;DHT22;5970;48.094;11.496;2022-09-27T05:46:05;10.40;99.90
11826;DHT22;5970;48.094;11.496;2022-09-27T05:48:31;10.40;99.90
11826;DHT22;5970;48.094;11.496;2022-09-27T05:50:58;10.40;99.90
11826;DHT22;5970;48.094;11.496;2022-09-27T05:53:25;10.40;99.90
11826;DHT22;5970;48.094;11.496;2022-09-27T05:55:51;10.40;99.90
11826;DHT22;5970;48.094;11.496;2022-09-27T05:58:18;10.40;99.90
11826;DHT22;5970;48.094;11.496;2022-09-27T06:00:44;10.40;99.90
11826;DHT22;5970;48.094;11.496;2022-09-27T06:03:11;10.50;99.90
11826;DHT22;5970;48.094;11.496;2022-09-27T06:05:38;10.30;99.90
11826;DHT22;5970;48.094;11.496;2022-09-27T06:08:06;10.40;99.90
11826;DHT22;5970;48.094;11.496;2022-09-27T06:10:33;10.40;99.90
11826;DHT22;5970;48.094;11.496;2022-09-27T06:13:01;10.30;99.90
11826;DHT22;5970;48.094;11.496;2022-09-27T06:15:28;10.20;99.90
11826;DHT22;5970;48.094;11.496;2022-09-27T06:17:55;10.30;99.90
11826;DHT22;5970;48.094;11.496;2022-09-27T06:20:22;10.10;99.90
11826;DHT22;5970;48.094;11.496;2022-09-27T06:22:49;10.00;99.90
11826;DHT22;5970;48.094;11.496;2022-09-27T06:25:15;10.10;99.90
11826;DHT22;5970;48.094;11.496;2022-09-27T06:27:42;10.10;99.90
11826;DHT22;5970;48.094;11.496;2022-09-27T06:30:09;10.10;99.90
11826;DHT22;5970;48.094;11.496;2022-09-27T06:32:43;10.20;99.90
11826;DHT22;5970;48.094;11.496;2022-09-27T06:35:10;10.30;99.90
11826;DHT22;5970;48.094;11.496;2022-09-27T06:37:36;10.20;99.90
11826;DHT22;5970;48.094;11.496;2022-09-27T06:40:03;10.20;99.90
11826;DHT22;5970;48.094;11.496;2022-09-27T06:42:30;10.10;99.90
11826;DHT22;5970;48.094;11.496;2022-09-27T06:44:56;10.10;99.90
11826;DHT22;5970;48.094;11.496;2022-09-27T06:47:23;10.30;99.90
11826;DHT22;5970;48.094;11.496;2022-09-27T06:49:51;10.50;99.90
11826;DHT22;5970;48.094;11.496;2022-09-27T06:52:17;10.60;99.90
11826;DHT22;5970;48.094;11.496;2022-09-27T06:54:44;10.70;99.90
11826;DHT22;5970;48.094;11.496;2022-09-27T06:57:11;10.80;99.90
11826;DHT22;5970;48.094;11.496;2022-09-27T06:59:57;10.90;99.90
11826;DHT22;5970;48.094;11.496;2022-09-27T07:02:47;11.00;99.90
11826;DHT22;5970;48.094;11.496;2022-09-27T07:05:13;10.90;99.90
11826;DHT22;5970;48.094;11.496;2022-09-27T07:07:40;10.90;99.90
11826;DHT22;5970;48.094;11.496;2022-09-27T07:10:07;11.00;99.90
11826;DHT22;5970;48.094;11.496;2022-09-27T07:12:35;11.10;99.90
11826;DHT22;5970;48.094;11.496;2022-09-27T07:15:03;11.20;99.90
11826;DHT22;5970;48.094;11.496;2022-09-27T07:17:30;11.40;99.90
11826;DHT22;5970;48.094;11.496;2022-09-27T07:19:57;11.70;99.90
11826;DHT22;5970;48.094;11.496;2022-09-27T07:22:24;11.80;99.90
11826;DHT22;5970;48.094;11.496;2022-09-27T07:24:50;11.90;99.90
11826;DHT22;5970;48.094;11.496;2022-09-27T07:27:17;11.80;99.90
11826;DHT22;5970;48.094;11.496;2022-09-27T07:29:43;11.70;99.90
11826;DHT22;5970;48.094;11.496;2022-09-27T07:32:10;11.70;99.90
11826;DHT22;5970;48.094;11.496;2022-09-27T07:34:37;11.80;99.90
11826;DHT22;5970;48.094;11.496;2022-09-27T07:37:03;11.90;99.90
11826;DHT22;5970;48.094;11.496;2022-09-27T07:39:31;11.80;99.90
11826;DHT22;5970;48.094;11.496;2022-09-27T07:41:57;12.00;99.90
11826;DHT22;5970;48.094;11.496;2022-09-27T07:44:24;12.10;99.90
11826;DHT22;5970;48.094;11.496;2022-09-27T07:46:51;12.20;99.90
11826;DHT22;5970;48.094;11.496;2022-09-27T07:49:17;12.30;99.90
11826;DHT22;5970;48.094;11.496;2022-09-27T07:51:44;12.20;99.90
11826;DHT22;5970;48.094;11.496;2022-09-27T07:54:10;12.10;99.90
11826;DHT22;5970;48.094;11.496;2022-09-27T07:56:37;12.10;99.90
11826;DHT22;5970;48.094;11.496;2022-09-27T07:59:04;12.30;99.90
11826;DHT22;5970;48.094;11.496;2022-09-27T08:01:30;12.30;99.90
11826;DHT22;5970;48.094;11.496;2022-09-27T08:03:57;12.30;99.90
11826;DHT22;5970;48.094;11.496;2022-09-27T08:06:24;12.40;99.90
11826;DHT22;5970;48.094;11.496;2022-09-27T08:08:50;12.70;99.90
11826;DHT22;5970;48.094;11.496;2022-09-27T08:11:17;12.90;99.60
11826;DHT22;5970;48.094;11.496;2022-09-27T08:13:44;12.80;99.30
11826;DHT22;5970;48.094;11.496;2022-09-27T08:16:11;12.60;99.90
11826;DHT22;5970;48.094;11.496;2022-09-27T08:18:39;11.90;99.90
11826;DHT22;5970;48.094;11.496;2022-09-27T08:21:06;11.50;99.90
11826;DHT22;5970;48.094;11.496;2022-09-27T08:23:32;11.10;99.90
11826;DHT22;5970;48.094;11.496;2022-09-27T08:25:59;10.60;99.90
11826;DHT22;5970;48.094;11.496;2022-09-27T08:28:26;10.40;99.90
11826;DHT22;5970;48.094;11.496;2022-09-27T08:30:53;10.30;99.90
11826;DHT22;5970;48.094;11.496;2022-09-27T08:33:19;10.10;99.90
11826;DHT22;5970;48.094;11.496;2022-09-27T08:35:46;9.90;99.90
11826;DHT22;5970;48.094;11.496;2022-09-27T08:38:13;9.70;99.90
11826;DHT22;5970;48.094;11.496;2022-09-27T08:43:28;9.60;99.90
11826;DHT22;5970;48.094;11.496;2022-09-27T08:48:44;9.80;99.90
11826;DHT22;5970;48.094;11.496;2022-09-27T08:51:13;10.00;99.90
11826;DHT22;5970;48.094;11.496;2022-09-27T08:56:07;11.40;99.90
11826;DHT22;5970;48.094;11.496;2022-09-27T09:01:14;13.60;99.90
11826;DHT22;5970;48.094;11.496;2022-09-27T09:03:52;13.90;99.90
11826;DHT22;5970;48.094;11.496;2022-09-27T09:06:24;13.50;99.90
11826;DHT22;5970;48.094;11.496;2022-09-27T09:19:28;16.10;99.70
11826;DHT22;5970;48.094;11.496;2022-09-27T09:24:52;17.30;94.60
11826;DHT22;5970;48.094;11.496;2022-09-27T09:30:34;18.90;92.20
11826;DHT22;5970;48.094;11.496;2022-09-27T09:35:33;20.60;90.30
11826;DHT22;5970;48.094;11.496;2022-09-27T09:38:04;20.70;87.10
11826;DHT22;5970;48.094;11.496;2022-09-27T09:40:45;21.00;89.90
11826;DHT22;5970;48.094;11.496;2022-09-27T09:43:15;16.80;90.20
11826;DHT22;5970;48.094;11.496;2022-09-27T09:45:48;15.70;91.40
11826;DHT22;5970;48.094;11.496;2022-09-27T09:48:38;14.30;93.30
11826;DHT22;5970;48.094;11.496;2022-09-27T09:51:03;13.40;95.00
11826;DHT22;5970;48.094;11.496;2022-09-27T09:53:42;12.70;96.30
11826;DHT22;5970;48.094;11.496;2022-09-27T09:56:18;12.30;97.10
11826;DHT22;5970;48.094;11.496;2022-09-27T09:58:48;12.20;98.60
11826;DHT22;5970;48.094;11.496;2022-09-27T10:01:18;12.00;98.90
11826;DHT22;5970;48.094;11.496;2022-09-27T10:03:45;11.90;99.90
11826;DHT22;5970;48.094;11.496;2022-09-27T10:06:12;11.80;99.90
11826;DHT22;5970;48.094;11.496;2022-09-27T10:08:40;11.80;99.90
11826;DHT22;5970;48.094;11.496;2022-09-27T10:11:09;11.60;99.90
11826;DHT22;5970;48.094;11.496;2022-09-27T10:13:41;11.40;99.90
11826;DHT22;5970;48.094;11.496;2022-09-27T10:16:09;10.90;99.90
11826;DHT22;5970;48.094;11.496;2022-09-27T10:18:36;10.80;99.90
11826;DHT22;5970;48.094;11.496;2022-09-27T10:21:27;10.70;99.90
11826;DHT22;5970;48.094;11.496;2022-09-27T10:24:07;10.70;99.90
11826;DHT22;5970;48.094;11.496;2022-09-27T10:26:43;10.50;99.90
11826;DHT22;5970;48.094;11.496;2022-09-27T10:31:46;10.30;99.90
11826;DHT22;5970;48.094;11.496;2022-09-27T10:34:27;10.20;99.90
11826;DHT22;5970;48.094;11.496;2022-09-27T10:39:38;10.50;99.90
11826;DHT22;5970;48.094;11.496;2022-09-27T10:44:51;10.80;99.90
11826;DHT22;5970;48.094;11.496;2022-09-27T10:47:20;10.70;99.90
11826;DHT22;5970;48.094;11.496;2022-09-27T10:49:48;10.50;99.90
11826;DHT22;5970;48.094;11.496;2022-09-27T10:52:18;10.40;99.90
11826;DHT22;5970;48.094;11.496;2022-09-27T10:55:04;10.50;99.90
11826;DHT22;5970;48.094;11.496;2022-09-27T10:57:32;10.50;99.90
11826;DHT22;5970;48.094;11.496;2022-09-27T11:00:06;11.80;99.90
11826;DHT22;5970;48.094;11.496;2022-09-27T11:02:36;13.80;99.90
11826;DHT22;5970;48.094;11.496;2022-09-27T11:07:30;16.40;98.50
11826;DHT22;5970;48.094;11.496;2022-09-27T11:09:57;16.90;97.10
11826;DHT22;5970;48.094;11.496;2022-09-27T11:12:29;16.30;94.30
11826;DHT22;5970;48.094;11.496;2022-09-27T11:15:00;16.50;95.40
11826;DHT22;5970;48.094;11.496;2022-09-27T11:20:04;17.70;96.70
11826;DHT22;5970;48.094;11.496;2022-09-27T11:25:14;14.00;97.90
11826;DHT22;5970;48.094;11.496;2022-09-27T11:30:16;13.50;96.40
11826;DHT22;5970;48.094;11.496;2022-09-27T11:32:48;13.10;97.70
11826;DHT22;5970;48.094;11.496;2022-09-27T11:45:53;11.90;99.80
11826;DHT22;5970;48.094;11.496;2022-09-27T11:48:51;11.90;99.90
11826;DHT22;5970;48.094;11.496;2022-09-27T11:51:23;11.80;99.90
11826;DHT22;5970;48.094;11.496;2022-09-27T12:01:48;12.00;99.90
11826;DHT22;5970;48.094;11.496;2022-09-27T12:06:57;11.70;99.90
11826;DHT22;5970;48.094;11.496;2022-09-27T12:09:30;11.50;99.90
11826;DHT22;5970;48.094;11.496;2022-09-27T12:12:08;11.50;99.90
11826;DHT22;5970;48.094;11.496;2022-09-27T12:14:44;11.50;99.90
11826;DHT22;5970;48.094;11.496;2022-09-27T12:17:11;11.30;99.90
11826;DHT22;5970;48.094;11.496;2022-09-27T12:19:41;11.30;99.90
11826;DHT22;5970;48.094;11.496;2022-09-27T12:22:11;11.60;99.90
11826;DHT22;5970;48.094;11.496;2022-09-27T12:24:39;12.50;99.90
11826;DHT22;5970;48.094;11.496;2022-09-27T12:27:14;13.60;98.50
11826;DHT22;5970;48.094;11.496;2022-09-27T12:29:42;14.50;97.70
11826;DHT22;5970;48.094;11.496;2022-09-27T12:35:20;15.30;95.70
11826;DHT22;5970;48.094;11.496;2022-09-27T12:37:34;16.00;95.30
11826;DHT22;5970;48.094;11.496;2022-09-27T12:42:49;15.90;93.40
11826;DHT22;5970;48.094;11.496;2022-09-27T12:45:20;16.40;93.10
11826;DHT22;5970;48.094;11.496;2022-09-27T12:48:01;16.30;93.40
11826;DHT22;5970;48.094;11.496;2022-09-27T12:53:01;14.90;93.60
11826;DHT22;5970;48.094;11.496;2022-09-27T12:58:08;14.10;94.40
11826;DHT22;5970;48.094;11.496;2022-09-27T13:00:43;14.20;95.20
11826;DHT22;5970;48.094;11.496;2022-09-27T13:13:53;14.20;92.40
11826;DHT22;5970;48.094;11.496;2022-09-27T13:16:20;13.80;91.60
11826;DHT22;5970;48.094;11.496;2022-09-27T13:21:52;13.90;92.40
11826;DHT22;5970;48.094;11.496;2022-09-27T13:24:00;14.00;92.60
11826;DHT22;5970;48.094;11.496;2022-09-27T13:29:00;14.90;91.90
11826;DHT22;5970;48.094;11.496;2022-09-27T13:37:15;14.00;91.00
11826;DHT22;5970;48.094;11.496;2022-09-27T13:39:45;13.80;91.30
11826;DHT22;5970;48.094;11.496;2022-09-27T13:42:27;13.50;91.60
11826;DHT22;5970;48.094;11.496;2022-09-27T13:45:04;13.10;91.90
11826;DHT22;5970;48.094;11.496;2022-09-27T13:47:43;13.10;92.90
11826;DHT22;5970;48.094;11.496;2022-09-27T13:50:13;13.00;92.90
11826;DHT22;5970;48.094;11.496;2022-09-27T13:52:42;13.00;93.50
11826;DHT22;5970;48.094;11.496;2022-09-27T13:58:02;12.70;93.10
11826;DHT22;5970;48.094;11.496;2022-09-27T14:00:37;12.60;93.70
11826;DHT22;5970;48.094;11.496;2022-09-27T14:03:06;12.40;94.70
11826;DHT22;5970;48.094;11.496;2022-09-27T14:05:46;12.20;94.80
11826;DHT22;5970;48.094;11.496;2022-09-27T14:08:33;12.00;95.30
11826;DHT22;5970;48.094;11.496;2022-09-27T14:11:01;11.80;95.40
11826;DHT22;5970;48.094;11.496;2022-09-27T14:13:29;11.60;95.40
11826;DHT22;5970;48.094;11.496;2022-09-27T14:15:58;11.50;95.90
11826;DHT22;5970;48.094;11.496;2022-09-27T14:18:25;11.50;95.70
11826;DHT22;5970;48.094;11.496;2022-09-27T14:20:53;11.50;94.80
11826;DHT22;5970;48.094;11.496;2022-09-27T14:23:33;11.60;95.50
11826;DHT22;5970;48.094;11.496;2022-09-27T14:26:00;11.50;94.90
11826;DHT22;5970;48.094;11.496;2022-09-27T14:28:27;11.90;95.90
11826;DHT22;5970;48.094;11.496;2022-09-27T14:31:12;12.40;94.80
11826;DHT22;5970;48.094;11.496;2022-09-27T14:33:39;12.80;94.10
11826;DHT22;5970;48.094;11.496;2022-09-27T14:36:07;12.80;93.70
11826;DHT22;5970;48.094;11.496;2022-09-27T14:38:57;12.90;93.10
11826;DHT22;5970;48.094;11.496;2022-09-27T14:41:24;12.60;93.90
11826;DHT22;5970;48.094;11.496;2022-09-27T14:43:51;12.50;93.40
11826;DHT22;5970;48.094;11.496;2022-09-27T14:46:26;12.10;93.80
11826;DHT22;5970;48.094;11.496;2022-09-27T14:48:53;12.20;94.10
11826;DHT22;5970;48.094;11.496;2022-09-27T14:51:25;12.10;94.10
11826;DHT22;5970;48.094;11.496;2022-09-27T14:53:54;11.80;94.30
11826;DHT22;5970;48.094;11.496;2022-09-27T14:56:29;11.80;94.90
11826;DHT22;5970;48.094;11.496;2022-09-27T14:59:00;11.70;95.20
11826;DHT22;5970;48.094;11.496;2022-09-27T15:01:28;11.60;95.00
11826;DHT22;5970;48.094;11.496;2022-09-27T15:04:05;11.00;94.80
11826;DHT22;5970;48.094;11.496;2022-09-27T15:06:34;11.50;95.50
11826;DHT22;5970;48.094;11.496;2022-09-27T15:09:01;11.50;95.50
11826;DHT22;5970;48.094;11.496;2022-09-27T15:11:28;11.50;95.60
11826;DHT22;5970;48.094;11.496;2022-09-27T15:14:00;11.50;95.80
11826;DHT22;5970;48.094;11.496;2022-09-27T15:16:29;11.60;96.20
11826;DHT22;5970;48.094;11.496;2022-09-27T15:19:13;11.50;96.00
11826;DHT22;5970;48.094;11.496;2022-09-27T15:21:40;11.40;96.00
11826;DHT22;5970;48.094;11.496;2022-09-27T15:26:53;11.40;96.10
11826;DHT22;5970;48.094;11.496;2022-09-27T15:29:20;11.50;96.30
11826;DHT22;5970;48.094;11.496;2022-09-27T15:32:04;11.50;95.80
11826;DHT22;5970;48.094;11.496;2022-09-27T15:34:32;11.70;96.20
11826;DHT22;5970;48.094;11.496;2022-09-27T15:37:00;11.80;95.70
11826;DHT22;5970;48.094;11.496;2022-09-27T15:39:35;12.00;96.20
11826;DHT22;5970;48.094;11.496;2022-09-27T15:42:12;12.00;95.70
11826;DHT22;5970;48.094;11.496;2022-09-27T15:49:57;12.00;96.00
11826;DHT22;5970;48.094;11.496;2022-09-27T15:52:40;11.90;95.90
11826;DHT22;5970;48.094;11.496;2022-09-27T15:55:10;11.60;95.80
11826;DHT22;5970;48.094;11.496;2022-09-27T15:57:38;11.40;95.80
11826;DHT22;5970;48.094;11.496;2022-09-27T16:00:05;11.30;96.30
11826;DHT22;5970;48.094;11.496;2022-09-27T16:02:32;11.20;96.30
11826;DHT22;5970;48.094;11.496;2022-09-27T16:04:58;11.30;96.60
11826;DHT22;5970;48.094;11.496;2022-09-27T16:07:25;11.30;96.30
11826;DHT22;5970;48.094;11.496;2022-09-27T16:09:52;11.30;95.90
11826;DHT22;5970;48.094;11.496;2022-09-27T16:12:21;11.30;95.90
11826;DHT22;5970;48.094;11.496;2022-09-27T16:14:48;11.40;96.30
11826;DHT22;5970;48.094;11.496;2022-09-27T16:17:14;14.20;97.10
11826;DHT22;5970;48.094;11.496;2022-09-27T16:19:41;11.50;95.90
11826;DHT22;5970;48.094;11.496;2022-09-27T16:22:08;11.40;95.80
11826;DHT22;5970;48.094;11.496;2022-09-27T16:24:35;11.30;95.80
11826;DHT22;5970;48.094;11.496;2022-09-27T16:27:01;11.20;96.00
11826;DHT22;5970;48.094;11.496;2022-09-27T16:29:29;11.30;96.40
11826;DHT22;5970;48.094;11.496;2022-09-27T16:31:55;11.10;96.30
11826;DHT22;5970;48.094;11.496;2022-09-27T16:34:22;11.40;96.60
11826;DHT22;5970;48.094;11.496;2022-09-27T16:36:49;11.10;96.50
11826;DHT22;5970;48.094;11.496;2022-09-27T16:39:16;11.10;96.70
11826;DHT22;5970;48.094;11.496;2022-09-27T16:41:42;11.10;96.70
11826;DHT22;5970;48.094;11.496;2022-09-27T16:44:10;11.10;96.90
11826;DHT22;5970;48.094;11.496;2022-09-27T16:46:41;11.10;97.20
11826;DHT22;5970;48.094;11.496;2022-09-27T16:49:08;11.00;97.50
11826;DHT22;5970;48.094;11.496;2022-09-27T16:51:54;10.90;97.40
11826;DHT22;5970;48.094;11.496;2022-09-27T16:54:27;10.90;97.40
11826;DHT22;5970;48.094;11.496;2022-09-27T16:56:55;10.80;97.60
11826;DHT22;5970;48.094;11.496;2022-09-27T16:59:22;10.80;97.60
11826;DHT22;5970;48.094;11.496;2022-09-27T17:01:50;10.80;98.00
11826;DHT22;5970;48.094;11.496;2022-09-27T17:04:17;10.70;98.20
11826;DHT22;5970;48.094;11.496;2022-09-27T17:06:43;10.60;99.30
11826;DHT22;5970;48.094;11.496;2022-09-27T17:09:10;10.50;99.90
11826;DHT22;5970;48.094;11.496;2022-09-27T17:11:37;10.30;99.90
11826;DHT22;5970;48.094;11.496;2022-09-27T17:14:04;10.20;99.90
11826;DHT22;5970;48.094;11.496;2022-09-27T17:16:30;10.00;99.90
11826;DHT22;5970;48.094;11.496;2022-09-27T17:18:57;9.90;99.90
11826;DHT22;5970;48.094;11.496;2022-09-27T17:21:24;9.90;99.90
11826;DHT22;5970;48.094;11.496;2022-09-27T17:23:50;9.90;99.90
11826;DHT22;5970;48.094;11.496;2022-09-27T17:26:18;9.90;99.90
11826;DHT22;5970;48.094;11.496;2022-09-27T17:28:46;9.70;99.90
11826;DHT22;5970;48.094;11.496;2022-09-27T17:31:14;9.50;99.90
11826;DHT22;5970;48.094;11.496;2022-09-27T17:33:42;9.40;99.90
11826;DHT22;5970;48.094;11.496;2022-09-27T17:36:10;9.30;99.90
11826;DHT22;5970;48.094;11.496;2022-09-27T17:38:38;9.30;99.90
11826;DHT22;5970;48.094;11.496;2022-09-27T17:41:06;9.40;99.90
11826;DHT22;5970;48.094;11.496;2022-09-27T17:43:34;9.10;99.90
11826;DHT22;5970;48.094;11.496;2022-09-27T17:46:04;9.20;99.90
11826;DHT22;5970;48.094;11.496;2022-09-27T17:48:31;9.10;99.90
11826;DHT22;5970;48.094;11.496;2022-09-27T17:51:16;9.10;99.90
11826;DHT22;5970;48.094;11.496;2022-09-27T17:53:43;9.10;99.90
11826;DHT22;5970;48.094;11.496;2022-09-27T17:56:10;9.10;99.90
11826;DHT22;5970;48.094;11.496;2022-09-27T17:58:37;9.10;99.90
11826;DHT22;5970;48.094;11.496;2022-09-27T18:01:04;9.10;99.90
11826;DHT22;5970;48.094;11.496;2022-09-27T18:03:33;10.80;99.90
11826;DHT22;5970;48.094;11.496;2022-09-27T18:06:06;9.20;99.90
11826;DHT22;5970;48.094;11.496;2022-09-27T18:08:33;9.20;99.90
11826;DHT22;5970;48.094;11.496;2022-09-27T18:11:07;9.20;99.90
11826;DHT22;5970;48.094;11.496;2022-09-27T18:13:34;9.30;99.90
11826;DHT22;5970;48.094;11.496;2022-09-27T18:16:06;9.20;99.90
11826;DHT22;5970;48.094;11.496;2022-09-27T18:18:34;9.20;99.90